La Porsche — VY9305 — position and weather

sailwx.info

Track history (hours):
 
Tides and Currents Weather Stations Pressure Air Temp Water Temp Dewpoint Dewpoint Depression Visibility Wind Speed Wind Dir Waves Ship Positions

La Porsche

Last reported at 2015-Aug-05 04:33 UTC. Time now 2015-Sep-01 01:55 UTC.
Position N 50°51' W 127°47'.
Warning: this ship's position is 26 days out of date.

Length 22 m; draft 3 m.

Type: Fishing. MMSI: 316001649.

Date/timePositionNaut miles runAvg speedWind from/ knotsBaromVisibWave heightAir tempDewpointWater temp
2015-Aug-05 04:33N 50°51' W 127°47'8 7.8
2015-Aug-05 03:33N 50°48' W 127°36'6 6.3
2015-Aug-05 02:33N 50°44' W 127°28'1 0.6
2015-Aug-05 01:33N 50°44' W 127°28'0 0.2
2015-Aug-05 00:08N 50°43' W 127°28'0 0.0
2015-Aug-04 23:33N 50°43' W 127°28'1 1.0
2015-Aug-04 22:33N 50°44' W 127°28'7 6.4
2015-Aug-04 21:31N 50°42' W 127°18'77 7.6
2015-Aug-04 11:27N 50°17' W 125°24'10 7.6
2015-Aug-04 10:09N 50°07' W 125°20'6 9.7
2015-Aug-04 09:33N 50°03' W 125°14'10 9.8
2015-Aug-04 08:33N 49°56' W 125°04'9 8.7
2015-Aug-04 07:33N 49°50' W 124°54'8 8.3
2015-Aug-04 06:33N 49°45' W 124°44'8 8.2
2015-Aug-04 05:33N 49°40' W 124°34'9 8.7
2015-Aug-04 04:33N 49°35' W 124°23'9 8.8
2015-Aug-04 03:33N 49°30' W 124°11'9 8.6
2015-Aug-04 02:33N 49°26' W 123°59'9 8.9
2015-Aug-04 01:33N 49°23' W 123°47'9 9.1
2015-Aug-04 00:33N 49°19' W 123°34'9 9.2
2015-Aug-03 23:33N 49°17' W 123°20'9 8.9
2015-Aug-03 22:33N 49°12' W 123°09'9 8.6
2015-Aug-03 21:33N 49°12' W 122°55'1 1.3
2015-Aug-03 20:33N 49°11' W 122°55'0 0.0
2015-Aug-03 19:33N 49°11' W 122°55'0 0.0
2015-Aug-03 18:33N 49°11' W 122°55'0 0.0
2015-Aug-03 17:33N 49°11' W 122°55'0 0.0
2015-Aug-03 16:33N 49°11' W 122°55'0 0.0
2015-Aug-03 15:33N 49°11' W 122°55'0 0.0
2015-Aug-03 14:33N 49°11' W 122°55'0 0.0
2015-Aug-03 13:33N 49°11' W 122°55'0 0.0
2015-Aug-03 12:33N 49°11' W 122°55'0 0.0
2015-Aug-03 11:33N 49°11' W 122°55'0 0.0
2015-Aug-03 10:33N 49°11' W 122°55'0 0.0
2015-Aug-03 09:33N 49°11' W 122°55'0 0.0
2015-Aug-03 08:33N 49°11' W 122°55'0 0.0
2015-Aug-03 07:33N 49°11' W 122°55'0 0.0
2015-Aug-03 06:33N 49°11' W 122°55'0 0.0
2015-Aug-03 05:33N 49°11' W 122°55'0 0.0
2015-Aug-03 04:33N 49°11' W 122°55'0 0.0
2015-Aug-03 03:33N 49°11' W 122°55'0 0.0
2015-Aug-03 02:33N 49°11' W 122°55'0 0.0
2015-Aug-03 01:33N 49°11' W 122°55'0 0.0
2015-Aug-03 00:33N 49°11' W 122°55'0 0.0
2015-Aug-02 23:33N 49°11' W 122°55'0 0.0
2015-Aug-02 22:33N 49°11' W 122°55'0 0.0
2015-Aug-02 21:33N 49°11' W 122°55'0 0.0
2015-Aug-02 20:33N 49°11' W 122°55'0 0.0
2015-Aug-02 19:33N 49°11' W 122°55'0 0.0
2015-Aug-02 18:33N 49°11' W 122°55'0 0.0
2015-Aug-02 17:33N 49°11' W 122°55'0 0.0
2015-Aug-02 16:33N 49°11' W 122°55'0 0.0
2015-Aug-02 15:33N 49°11' W 122°55'0 0.0
2015-Aug-02 14:33N 49°11' W 122°55'0 0.0
2015-Aug-02 13:33N 49°11' W 122°55'0 0.0
2015-Aug-02 12:33N 49°11' W 122°55'0 0.0
2015-Aug-02 11:33N 49°11' W 122°55'0 0.0
2015-Aug-02 10:33N 49°11' W 122°55'0 0.0
2015-Aug-02 09:33N 49°11' W 122°55'0 0.0
2015-Aug-02 08:33N 49°11' W 122°55'0 0.0
2015-Aug-02 07:33N 49°11' W 122°55'0 0.0
2015-Aug-02 06:33N 49°11' W 122°55'0 0.0
2015-Aug-02 05:33N 49°11' W 122°55'0 0.0
2015-Aug-02 04:33N 49°11' W 122°55'0 0.0
2015-Aug-02 03:33N 49°11' W 122°55'0 0.0
2015-Aug-02 02:33N 49°11' W 122°55'0 0.0
2015-Aug-02 01:33N 49°11' W 122°55'0 0.0
2015-Aug-02 00:33N 49°11' W 122°55'0 0.0
2015-Aug-01 23:33N 49°11' W 122°55'0 0.0
2015-Aug-01 22:33N 49°11' W 122°55'0 0.0
2015-Aug-01 21:33N 49°11' W 122°55'0 0.0
2015-Aug-01 20:33N 49°11' W 122°55'0 0.0
2015-Aug-01 19:33N 49°11' W 122°55'0 0.0
2015-Aug-01 18:33N 49°11' W 122°55'0 0.0
2015-Aug-01 17:33N 49°11' W 122°55'0 0.0
2015-Aug-01 16:33N 49°11' W 122°55'0 0.0
2015-Aug-01 15:33N 49°11' W 122°55'0 0.0
2015-Aug-01 14:33N 49°11' W 122°55'0 0.0
2015-Aug-01 13:33N 49°11' W 122°55'0 0.0
2015-Aug-01 12:33N 49°11' W 122°55'0 0.0
2015-Aug-01 11:33N 49°11' W 122°55'0 0.0
2015-Aug-01 10:33N 49°11' W 122°55'0 0.0
2015-Aug-01 09:33N 49°11' W 122°55'0 0.0
2015-Aug-01 08:33N 49°11' W 122°55'0 0.0
2015-Aug-01 07:33N 49°11' W 122°55'0 0.0
2015-Aug-01 06:33N 49°11' W 122°55'0 0.0
2015-Aug-01 05:33N 49°11' W 122°55'0 0.0
2015-Aug-01 04:33N 49°11' W 122°55'0 0.0
2015-Aug-01 03:33N 49°11' W 122°55'0 0.0
2015-Aug-01 02:33N 49°11' W 122°55'0 0.0
2015-Aug-01 01:33N 49°11' W 122°55'0 0.0
2015-Aug-01 00:33N 49°11' W 122°55'0 0.0
2015-Jul-31 23:33N 49°11' W 122°55'0 0.0
2015-Jul-31 22:33N 49°11' W 122°55'0 0.0
2015-Jul-31 21:33N 49°11' W 122°55'0 0.0
2015-Jul-31 20:33N 49°11' W 122°55'0 0.0
2015-Jul-31 19:33N 49°11' W 122°55'0 0.0
2015-Jul-31 18:33N 49°11' W 122°55'0 0.0
2015-Jul-31 17:33N 49°11' W 122°55'0 0.0
2015-Jul-31 16:33N 49°11' W 122°55'0 0.0
2015-Jul-31 15:33N 49°11' W 122°55'0 0.0
2015-Jul-31 14:33N 49°11' W 122°55'0 0.0
2015-Jul-31 13:33N 49°11' W 122°55'0 0.0
2015-Jul-31 12:33N 49°11' W 122°55'0 0.0
2015-Jul-31 11:33N 49°11' W 122°55'0 0.0
2015-Jul-31 10:33N 49°11' W 122°55'0 0.0
2015-Jul-31 09:33N 49°11' W 122°55'0 0.0
2015-Jul-31 08:33N 49°11' W 122°55'0 0.0
2015-Jul-31 07:33N 49°11' W 122°55'0 0.0
2015-Jul-31 06:33N 49°11' W 122°55'0 0.0
2015-Jul-31 05:33N 49°11' W 122°55'0 0.0
2015-Jul-31 04:33N 49°11' W 122°55'0 0.0
2015-Jul-31 03:33N 49°11' W 122°55'0 0.0
2015-Jul-31 02:33N 49°11' W 122°55'0 0.0
2015-Jul-31 01:33N 49°11' W 122°55'0 0.0
2015-Jul-31 00:33N 49°11' W 122°55'0 0.0
2015-Jul-30 23:33N 49°11' W 122°55'0 0.0
2015-Jul-30 22:33N 49°11' W 122°55'0 0.0
2015-Jul-30 21:33N 49°11' W 122°55'0 0.0
2015-Jul-30 20:33N 49°11' W 122°55'0 0.0
2015-Jul-30 19:33N 49°11' W 122°55'0 0.0
2015-Jul-30 18:33N 49°11' W 122°55'0 0.0
2015-Jul-30 17:33N 49°11' W 122°55'0 0.0
2015-Jul-30 16:33N 49°11' W 122°55'0 0.0
2015-Jul-30 15:33N 49°11' W 122°55'0 0.0
2015-Jul-30 14:33N 49°11' W 122°55'0 0.0
2015-Jul-30 13:33N 49°11' W 122°55'0 0.0
2015-Jul-30 12:33N 49°11' W 122°55'0 0.0
2015-Jul-30 11:33N 49°11' W 122°55'0 0.0
2015-Jul-30 10:33N 49°11' W 122°55'0 0.0
2015-Jul-30 09:33N 49°11' W 122°55'0 0.0
2015-Jul-30 08:33N 49°11' W 122°55'0 0.0
2015-Jul-30 07:33N 49°11' W 122°55'0 0.0
2015-Jul-30 06:33N 49°11' W 122°55'0 0.0
2015-Jul-30 05:33N 49°11' W 122°55'0 0.0
2015-Jul-30 04:33N 49°11' W 122°55'0 0.0
2015-Jul-30 03:33N 49°11' W 122°55'0 0.0
2015-Jul-30 02:33N 49°11' W 122°55'0 0.0
2015-Jul-30 01:33N 49°11' W 122°55'0 0.0
2015-Jul-30 00:33N 49°11' W 122°55'0 0.0
2015-Jul-29 23:33N 49°11' W 122°55'0 0.0
2015-Jul-29 22:33N 49°11' W 122°55'0 0.0
2015-Jul-29 21:33N 49°11' W 122°55'0 0.0
2015-Jul-29 20:33N 49°11' W 122°55'0 0.0
2015-Jul-29 19:33N 49°11' W 122°55'0 0.0
2015-Jul-29 18:33N 49°11' W 122°55'0 0.0
2015-Jul-29 17:33N 49°11' W 122°55'0 0.0
2015-Jul-29 16:33N 49°11' W 122°55'0 0.0
2015-Jul-29 15:33N 49°11' W 122°55'0 0.0
2015-Jul-29 14:33N 49°11' W 122°55'0 0.0
2015-Jul-29 13:33N 49°11' W 122°55'0 0.0
2015-Jul-29 12:33N 49°11' W 122°55'0 0.0
2015-Jul-29 11:33N 49°11' W 122°55'0 0.0
2015-Jul-29 10:33N 49°11' W 122°55'0 0.0
2015-Jul-29 09:33N 49°11' W 122°55'0 0.0
2015-Jul-29 08:33N 49°11' W 122°55'0 0.0
2015-Jul-29 07:33N 49°11' W 122°55'0 0.0
2015-Jul-29 06:33N 49°11' W 122°55'0 0.0
2015-Jul-29 05:33N 49°11' W 122°55'0 0.0
2015-Jul-29 04:33N 49°11' W 122°55'0 0.0
2015-Jul-29 03:33N 49°11' W 122°55'0 0.0
2015-Jul-29 02:33N 49°11' W 122°55'0 0.0
2015-Jul-29 01:33N 49°11' W 122°55'0 0.0
2015-Jul-29 00:33N 49°11' W 122°55'0 0.0
2015-Jul-28 23:33N 49°11' W 122°55'0 0.0
2015-Jul-28 22:33N 49°11' W 122°55'0 0.0
2015-Jul-28 21:33N 49°11' W 122°55'0 0.0
2015-Jul-28 20:33N 49°11' W 122°55'0 0.0
2015-Jul-28 19:33N 49°11' W 122°55'0 0.0
2015-Jul-28 18:33N 49°11' W 122°55'0 0.0
2015-Jul-28 17:33N 49°11' W 122°55'0 0.0
2015-Jul-28 16:33N 49°11' W 122°55'0 0.0
2015-Jul-28 15:33N 49°11' W 122°55'0 0.0
2015-Jul-28 14:33N 49°11' W 122°55'0 0.0
2015-Jul-28 13:33N 49°11' W 122°55'0 0.0
2015-Jul-28 12:33N 49°11' W 122°55'0 0.0
2015-Jul-28 11:33N 49°11' W 122°55'0 0.0
2015-Jul-28 10:33N 49°11' W 122°55'0 0.0
2015-Jul-28 09:33N 49°11' W 122°55'0 0.0
2015-Jul-28 08:33N 49°11' W 122°55'0 0.0
2015-Jul-28 07:33N 49°11' W 122°55'0 0.0
2015-Jul-28 06:33N 49°11' W 122°55'0 0.0
2015-Jul-28 05:33N 49°11' W 122°55'0 0.0
2015-Jul-28 04:33N 49°11' W 122°55'0 0.0
2015-Jul-28 03:33N 49°11' W 122°55'0 0.0
2015-Jul-28 02:33N 49°11' W 122°55'0 0.0
2015-Jul-28 01:33N 49°11' W 122°55'0 0.0
2015-Jul-28 00:33N 49°11' W 122°55'0 0.0
2015-Jul-27 23:33N 49°11' W 122°55'0 0.0
2015-Jul-27 22:33N 49°11' W 122°55'0 0.0
2015-Jul-27 21:33N 49°11' W 122°55'0 0.0
2015-Jul-27 20:33N 49°11' W 122°55'0 0.0
2015-Jul-27 19:33N 49°11' W 122°55'0 0.0
2015-Jul-27 18:33N 49°11' W 122°55'0 0.0
2015-Jul-27 17:33N 49°11' W 122°55'0 0.0
2015-Jul-27 16:33N 49°11' W 122°55'0 0.0
2015-Jul-27 15:33N 49°11' W 122°55'0 0.0
2015-Jul-27 14:33N 49°11' W 122°55'0 0.0
2015-Jul-27 13:33N 49°11' W 122°55'0 0.0
2015-Jul-27 12:33N 49°11' W 122°55'0 0.0
2015-Jul-27 11:33N 49°11' W 122°55'0 0.0
2015-Jul-27 10:33N 49°11' W 122°55'0 0.0
2015-Jul-27 09:33N 49°11' W 122°55'0 0.0
2015-Jul-27 08:33N 49°11' W 122°55'0 0.0
2015-Jul-27 07:33N 49°11' W 122°55'0 0.0
2015-Jul-27 06:33N 49°11' W 122°55'0 0.0
2015-Jul-27 05:33N 49°11' W 122°55'0 0.0
2015-Jul-27 04:33N 49°11' W 122°55'0 0.0
2015-Jul-27 03:33N 49°11' W 122°55'0 0.0
2015-Jul-27 02:33N 49°11' W 122°55'0 0.0
2015-Jul-27 01:33N 49°11' W 122°55'0 0.0
2015-Jul-27 00:33N 49°11' W 122°55'0 0.0
2015-Jul-26 23:33N 49°11' W 122°55'0 0.0
2015-Jul-26 22:33N 49°11' W 122°55'0 0.0
2015-Jul-26 21:33N 49°11' W 122°55'0 0.0
2015-Jul-26 20:33N 49°11' W 122°55'0 0.0
2015-Jul-26 19:33N 49°11' W 122°55'0 0.0
2015-Jul-26 18:33N 49°11' W 122°55'0 0.0
2015-Jul-26 17:33N 49°11' W 122°55'0 0.0
2015-Jul-26 16:33N 49°11' W 122°55'0 0.0
2015-Jul-26 15:33N 49°11' W 122°55'0 0.0
2015-Jul-26 14:33N 49°11' W 122°55'0 0.0
2015-Jul-26 13:33N 49°11' W 122°55'0 0.0
2015-Jul-26 12:33N 49°11' W 122°55'0 0.0
2015-Jul-26 11:33N 49°11' W 122°55'0 0.0
2015-Jul-26 10:33N 49°11' W 122°55'0 0.0
2015-Jul-26 09:33N 49°11' W 122°55'0 0.0
2015-Jul-26 08:33N 49°11' W 122°55'0 0.0
2015-Jul-26 07:33N 49°11' W 122°55'0 0.0
2015-Jul-26 06:33N 49°11' W 122°55'0 0.0
2015-Jul-26 05:33N 49°11' W 122°55'0 0.0
2015-Jul-26 04:33N 49°11' W 122°55'  
Track history (hours):
 
Tides and Currents Weather Stations Pressure Air Temp Water Temp Dewpoint Dewpoint Depression Visibility Wind Speed Wind Dir Waves Ship Positions

La Porsche

Last reported at 2015-Aug-05 04:33 UTC. Time now 2015-Sep-01 01:55 UTC.
Position N 50°51' W 127°47'.
Warning: this ship's position is 26 days out of date.

Length 22 m; draft 3 m.

Type: Fishing. MMSI: 316001649.

Date/timePositionNaut miles runAvg speedWind from/ knotsBaromVisibWave heightAir tempDewpointWater temp
2015-Aug-05 04:33N 50°51' W 127°47'8 7.8
2015-Aug-05 03:33N 50°48' W 127°36'6 6.3
2015-Aug-05 02:33N 50°44' W 127°28'1 0.6
2015-Aug-05 01:33N 50°44' W 127°28'0 0.2
2015-Aug-05 00:08N 50°43' W 127°28'0 0.0
2015-Aug-04 23:33N 50°43' W 127°28'1 1.0
2015-Aug-04 22:33N 50°44' W 127°28'7 6.4
2015-Aug-04 21:31N 50°42' W 127°18'77 7.6
2015-Aug-04 11:27N 50°17' W 125°24'10 7.6
2015-Aug-04 10:09N 50°07' W 125°20'6 9.7
2015-Aug-04 09:33N 50°03' W 125°14'10 9.8
2015-Aug-04 08:33N 49°56' W 125°04'9 8.7
2015-Aug-04 07:33N 49°50' W 124°54'8 8.3
2015-Aug-04 06:33N 49°45' W 124°44'8 8.2
2015-Aug-04 05:33N 49°40' W 124°34'9 8.7
2015-Aug-04 04:33N 49°35' W 124°23'9 8.8
2015-Aug-04 03:33N 49°30' W 124°11'9 8.6
2015-Aug-04 02:33N 49°26' W 123°59'9 8.9
2015-Aug-04 01:33N 49°23' W 123°47'9 9.1
2015-Aug-04 00:33N 49°19' W 123°34'9 9.2
2015-Aug-03 23:33N 49°17' W 123°20'9 8.9
2015-Aug-03 22:33N 49°12' W 123°09'9 8.6
2015-Aug-03 21:33N 49°12' W 122°55'1 1.3
2015-Aug-03 20:33N 49°11' W 122°55'0 0.0
2015-Aug-03 19:33N 49°11' W 122°55'0 0.0
2015-Aug-03 18:33N 49°11' W 122°55'0 0.0
2015-Aug-03 17:33N 49°11' W 122°55'0 0.0
2015-Aug-03 16:33N 49°11' W 122°55'0 0.0
2015-Aug-03 15:33N 49°11' W 122°55'0 0.0
2015-Aug-03 14:33N 49°11' W 122°55'0 0.0
2015-Aug-03 13:33N 49°11' W 122°55'0 0.0
2015-Aug-03 12:33N 49°11' W 122°55'0 0.0
2015-Aug-03 11:33N 49°11' W 122°55'0 0.0
2015-Aug-03 10:33N 49°11' W 122°55'0 0.0
2015-Aug-03 09:33N 49°11' W 122°55'0 0.0
2015-Aug-03 08:33N 49°11' W 122°55'0 0.0
2015-Aug-03 07:33N 49°11' W 122°55'0 0.0
2015-Aug-03 06:33N 49°11' W 122°55'0 0.0
2015-Aug-03 05:33N 49°11' W 122°55'0 0.0
2015-Aug-03 04:33N 49°11' W 122°55'0 0.0
2015-Aug-03 03:33N 49°11' W 122°55'0 0.0
2015-Aug-03 02:33N 49°11' W 122°55'0 0.0
2015-Aug-03 01:33N 49°11' W 122°55'0 0.0
2015-Aug-03 00:33N 49°11' W 122°55'0 0.0
2015-Aug-02 23:33N 49°11' W 122°55'0 0.0
2015-Aug-02 22:33N 49°11' W 122°55'0 0.0
2015-Aug-02 21:33N 49°11' W 122°55'0 0.0
2015-Aug-02 20:33N 49°11' W 122°55'0 0.0
2015-Aug-02 19:33N 49°11' W 122°55'0 0.0
2015-Aug-02 18:33N 49°11' W 122°55'0 0.0
2015-Aug-02 17:33N 49°11' W 122°55'0 0.0
2015-Aug-02 16:33N 49°11' W 122°55'0 0.0
2015-Aug-02 15:33N 49°11' W 122°55'0 0.0
2015-Aug-02 14:33N 49°11' W 122°55'0 0.0
2015-Aug-02 13:33N 49°11' W 122°55'0 0.0
2015-Aug-02 12:33N 49°11' W 122°55'0 0.0
2015-Aug-02 11:33N 49°11' W 122°55'0 0.0
2015-Aug-02 10:33N 49°11' W 122°55'0 0.0
2015-Aug-02 09:33N 49°11' W 122°55'0 0.0
2015-Aug-02 08:33N 49°11' W 122°55'0 0.0
2015-Aug-02 07:33N 49°11' W 122°55'0 0.0
2015-Aug-02 06:33N 49°11' W 122°55'0 0.0
2015-Aug-02 05:33N 49°11' W 122°55'0 0.0
2015-Aug-02 04:33N 49°11' W 122°55'0 0.0
2015-Aug-02 03:33N 49°11' W 122°55'0 0.0
2015-Aug-02 02:33N 49°11' W 122°55'0 0.0
2015-Aug-02 01:33N 49°11' W 122°55'0 0.0
2015-Aug-02 00:33N 49°11' W 122°55'0 0.0
2015-Aug-01 23:33N 49°11' W 122°55'0 0.0
2015-Aug-01 22:33N 49°11' W 122°55'0 0.0
2015-Aug-01 21:33N 49°11' W 122°55'0 0.0
2015-Aug-01 20:33N 49°11' W 122°55'0 0.0
2015-Aug-01 19:33N 49°11' W 122°55'0 0.0
2015-Aug-01 18:33N 49°11' W 122°55'0 0.0
2015-Aug-01 17:33N 49°11' W 122°55'0 0.0
2015-Aug-01 16:33N 49°11' W 122°55'0 0.0
2015-Aug-01 15:33N 49°11' W 122°55'0 0.0
2015-Aug-01 14:33N 49°11' W 122°55'0 0.0
2015-Aug-01 13:33N 49°11' W 122°55'0 0.0
2015-Aug-01 12:33N 49°11' W 122°55'0 0.0
2015-Aug-01 11:33N 49°11' W 122°55'0 0.0
2015-Aug-01 10:33N 49°11' W 122°55'0 0.0
2015-Aug-01 09:33N 49°11' W 122°55'0 0.0
2015-Aug-01 08:33N 49°11' W 122°55'0 0.0
2015-Aug-01 07:33N 49°11' W 122°55'0 0.0
2015-Aug-01 06:33N 49°11' W 122°55'0 0.0
2015-Aug-01 05:33N 49°11' W 122°55'0 0.0
2015-Aug-01 04:33N 49°11' W 122°55'0 0.0
2015-Aug-01 03:33N 49°11' W 122°55'0 0.0
2015-Aug-01 02:33N 49°11' W 122°55'0 0.0
2015-Aug-01 01:33N 49°11' W 122°55'0 0.0
2015-Aug-01 00:33N 49°11' W 122°55'0 0.0
2015-Jul-31 23:33N 49°11' W 122°55'0 0.0
2015-Jul-31 22:33N 49°11' W 122°55'0 0.0
2015-Jul-31 21:33N 49°11' W 122°55'0 0.0
2015-Jul-31 20:33N 49°11' W 122°55'0 0.0
2015-Jul-31 19:33N 49°11' W 122°55'0 0.0
2015-Jul-31 18:33N 49°11' W 122°55'0 0.0
2015-Jul-31 17:33N 49°11' W 122°55'0 0.0
2015-Jul-31 16:33N 49°11' W 122°55'0 0.0
2015-Jul-31 15:33N 49°11' W 122°55'0 0.0
2015-Jul-31 14:33N 49°11' W 122°55'0 0.0
2015-Jul-31 13:33N 49°11' W 122°55'0 0.0
2015-Jul-31 12:33N 49°11' W 122°55'0 0.0
2015-Jul-31 11:33N 49°11' W 122°55'0 0.0
2015-Jul-31 10:33N 49°11' W 122°55'0 0.0
2015-Jul-31 09:33N 49°11' W 122°55'0 0.0
2015-Jul-31 08:33N 49°11' W 122°55'0 0.0
2015-Jul-31 07:33N 49°11' W 122°55'0 0.0
2015-Jul-31 06:33N 49°11' W 122°55'0 0.0
2015-Jul-31 05:33N 49°11' W 122°55'0 0.0
2015-Jul-31 04:33N 49°11' W 122°55'0 0.0
2015-Jul-31 03:33N 49°11' W 122°55'0 0.0
2015-Jul-31 02:33N 49°11' W 122°55'0 0.0
2015-Jul-31 01:33N 49°11' W 122°55'0 0.0
2015-Jul-31 00:33N 49°11' W 122°55'0 0.0
2015-Jul-30 23:33N 49°11' W 122°55'0 0.0
2015-Jul-30 22:33N 49°11' W 122°55'0 0.0
2015-Jul-30 21:33N 49°11' W 122°55'0 0.0
2015-Jul-30 20:33N 49°11' W 122°55'0 0.0
2015-Jul-30 19:33N 49°11' W 122°55'0 0.0
2015-Jul-30 18:33N 49°11' W 122°55'0 0.0
2015-Jul-30 17:33N 49°11' W 122°55'0 0.0
2015-Jul-30 16:33N 49°11' W 122°55'0 0.0
2015-Jul-30 15:33N 49°11' W 122°55'0 0.0
2015-Jul-30 14:33N 49°11' W 122°55'0 0.0
2015-Jul-30 13:33N 49°11' W 122°55'0 0.0
2015-Jul-30 12:33N 49°11' W 122°55'0 0.0
2015-Jul-30 11:33N 49°11' W 122°55'0 0.0
2015-Jul-30 10:33N 49°11' W 122°55'0 0.0
2015-Jul-30 09:33N 49°11' W 122°55'0 0.0
2015-Jul-30 08:33N 49°11' W 122°55'0 0.0
2015-Jul-30 07:33N 49°11' W 122°55'0 0.0
2015-Jul-30 06:33N 49°11' W 122°55'0 0.0
2015-Jul-30 05:33N 49°11' W 122°55'0 0.0
2015-Jul-30 04:33N 49°11' W 122°55'0 0.0
2015-Jul-30 03:33N 49°11' W 122°55'0 0.0
2015-Jul-30 02:33N 49°11' W 122°55'0 0.0
2015-Jul-30 01:33N 49°11' W 122°55'0 0.0
2015-Jul-30 00:33N 49°11' W 122°55'0 0.0
2015-Jul-29 23:33N 49°11' W 122°55'0 0.0
2015-Jul-29 22:33N 49°11' W 122°55'0 0.0
2015-Jul-29 21:33N 49°11' W 122°55'0 0.0
2015-Jul-29 20:33N 49°11' W 122°55'0 0.0
2015-Jul-29 19:33N 49°11' W 122°55'0 0.0
2015-Jul-29 18:33N 49°11' W 122°55'0 0.0
2015-Jul-29 17:33N 49°11' W 122°55'0 0.0
2015-Jul-29 16:33N 49°11' W 122°55'0 0.0
2015-Jul-29 15:33N 49°11' W 122°55'0 0.0
2015-Jul-29 14:33N 49°11' W 122°55'0 0.0
2015-Jul-29 13:33N 49°11' W 122°55'0 0.0
2015-Jul-29 12:33N 49°11' W 122°55'0 0.0
2015-Jul-29 11:33N 49°11' W 122°55'0 0.0
2015-Jul-29 10:33N 49°11' W 122°55'0 0.0
2015-Jul-29 09:33N 49°11' W 122°55'0 0.0
2015-Jul-29 08:33N 49°11' W 122°55'0 0.0
2015-Jul-29 07:33N 49°11' W 122°55'0 0.0
2015-Jul-29 06:33N 49°11' W 122°55'0 0.0
2015-Jul-29 05:33N 49°11' W 122°55'0 0.0
2015-Jul-29 04:33N 49°11' W 122°55'0 0.0
2015-Jul-29 03:33N 49°11' W 122°55'0 0.0
2015-Jul-29 02:33N 49°11' W 122°55'0 0.0
2015-Jul-29 01:33N 49°11' W 122°55'0 0.0
2015-Jul-29 00:33N 49°11' W 122°55'0 0.0
2015-Jul-28 23:33N 49°11' W 122°55'0 0.0
2015-Jul-28 22:33N 49°11' W 122°55'0 0.0
2015-Jul-28 21:33N 49°11' W 122°55'0 0.0
2015-Jul-28 20:33N 49°11' W 122°55'0 0.0
2015-Jul-28 19:33N 49°11' W 122°55'0 0.0
2015-Jul-28 18:33N 49°11' W 122°55'0 0.0
2015-Jul-28 17:33N 49°11' W 122°55'0 0.0
2015-Jul-28 16:33N 49°11' W 122°55'0 0.0
2015-Jul-28 15:33N 49°11' W 122°55'0 0.0
2015-Jul-28 14:33N 49°11' W 122°55'0 0.0
2015-Jul-28 13:33N 49°11' W 122°55'0 0.0
2015-Jul-28 12:33N 49°11' W 122°55'0 0.0
2015-Jul-28 11:33N 49°11' W 122°55'0 0.0
2015-Jul-28 10:33N 49°11' W 122°55'0 0.0
2015-Jul-28 09:33N 49°11' W 122°55'0 0.0
2015-Jul-28 08:33N 49°11' W 122°55'0 0.0
2015-Jul-28 07:33N 49°11' W 122°55'0 0.0
2015-Jul-28 06:33N 49°11' W 122°55'0 0.0
2015-Jul-28 05:33N 49°11' W 122°55'0 0.0
2015-Jul-28 04:33N 49°11' W 122°55'0 0.0
2015-Jul-28 03:33N 49°11' W 122°55'0 0.0
2015-Jul-28 02:33N 49°11' W 122°55'0 0.0
2015-Jul-28 01:33N 49°11' W 122°55'0 0.0
2015-Jul-28 00:33N 49°11' W 122°55'0 0.0
2015-Jul-27 23:33N 49°11' W 122°55'0 0.0
2015-Jul-27 22:33N 49°11' W 122°55'0 0.0
2015-Jul-27 21:33N 49°11' W 122°55'0 0.0
2015-Jul-27 20:33N 49°11' W 122°55'0 0.0
2015-Jul-27 19:33N 49°11' W 122°55'0 0.0
2015-Jul-27 18:33N 49°11' W 122°55'0 0.0
2015-Jul-27 17:33N 49°11' W 122°55'0 0.0
2015-Jul-27 16:33N 49°11' W 122°55'0 0.0
2015-Jul-27 15:33N 49°11' W 122°55'0 0.0
2015-Jul-27 14:33N 49°11' W 122°55'0 0.0
2015-Jul-27 13:33N 49°11' W 122°55'0 0.0
2015-Jul-27 12:33N 49°11' W 122°55'0 0.0
2015-Jul-27 11:33N 49°11' W 122°55'0 0.0
2015-Jul-27 10:33N 49°11' W 122°55'0 0.0
2015-Jul-27 09:33N 49°11' W 122°55'0 0.0
2015-Jul-27 08:33N 49°11' W 122°55'0 0.0
2015-Jul-27 07:33N 49°11' W 122°55'0 0.0
2015-Jul-27 06:33N 49°11' W 122°55'0 0.0
2015-Jul-27 05:33N 49°11' W 122°55'0 0.0
2015-Jul-27 04:33N 49°11' W 122°55'0 0.0
2015-Jul-27 03:33N 49°11' W 122°55'0 0.0
2015-Jul-27 02:33N 49°11' W 122°55'0 0.0
2015-Jul-27 01:33N 49°11' W 122°55'0 0.0
2015-Jul-27 00:33N 49°11' W 122°55'0 0.0
2015-Jul-26 23:33N 49°11' W 122°55'0 0.0
2015-Jul-26 22:33N 49°11' W 122°55'0 0.0
2015-Jul-26 21:33N 49°11' W 122°55'0 0.0
2015-Jul-26 20:33N 49°11' W 122°55'0 0.0
2015-Jul-26 19:33N 49°11' W 122°55'0 0.0
2015-Jul-26 18:33N 49°11' W 122°55'0 0.0
2015-Jul-26 17:33N 49°11' W 122°55'0 0.0
2015-Jul-26 16:33N 49°11' W 122°55'0 0.0
2015-Jul-26 15:33N 49°11' W 122°55'0 0.0
2015-Jul-26 14:33N 49°11' W 122°55'0 0.0
2015-Jul-26 13:33N 49°11' W 122°55'0 0.0
2015-Jul-26 12:33N 49°11' W 122°55'0 0.0
2015-Jul-26 11:33N 49°11' W 122°55'0 0.0
2015-Jul-26 10:33N 49°11' W 122°55'0 0.0
2015-Jul-26 09:33N 49°11' W 122°55'0 0.0
2015-Jul-26 08:33N 49°11' W 122°55'0 0.0
2015-Jul-26 07:33N 49°11' W 122°55'0 0.0
2015-Jul-26 06:33N 49°11' W 122°55'0 0.0
2015-Jul-26 05:33N 49°11' W 122°55'0 0.0
2015-Jul-26 04:33N 49°11' W 122°55'  

Dump ship's entire track history